Time;durP1;ratioP1;P1;durP2;ratioP2;P2;SDS_P1;SDS_P2;PMS_P1;PMS_P2;Temp;Humidity;BMP_temperature;BMP_pressure;BME280_temperature;BME280_humidity;BME280_pressure;Samples;Min_cycle;Max_cycle;Signal;HPM_P1;HPM_P2
2023/05/14 00:00:42;;;;;;;20.17;11.45;;;;;;;11.25;70.45;101017.94;5049225;28;20041;-58
2023/05/14 00:03:09;;;;;;;23.02;11.80;;;;;;;11.24;69.74;101016.19;5045613;28;20044;-56
2023/05/14 00:05:37;;;;;;;21.20;11.50;;;;;;;11.19;70.46;101008.38;5047507;28;20560;-57
2023/05/14 00:08:05;;;;;;;24.10;12.65;;;;;;;11.15;69.64;101009.22;5044498;28;20053;-58
2023/05/14 00:10:32;;;;;;;20.60;11.60;;;;;;;11.13;70.79;101010.91;5054181;28;20059;-57
2023/05/14 00:12:58;;;;;;;21.98;11.40;;;;;;;11.07;71.29;101005.66;5045376;28;20084;-58
2023/05/14 00:15:25;;;;;;;24.80;12.05;;;;;;;11.05;70.72;101001.31;5043255;28;20065;-57
2023/05/14 00:17:51;;;;;;;22.10;12.02;;;;;;;11.06;70.94;100989.22;5047601;28;20080;-58
2023/05/14 00:20:18;;;;;;;20.83;10.63;;;;;;;11.07;70.35;100992.69;5053912;28;20059;-56
2023/05/14 00:22:46;;;;;;;25.52;11.52;;;;;;;11.09;70.18;100990.97;5048584;28;20053;-56
2023/05/14 00:25:14;;;;;;;21.17;11.57;;;;;;;11.08;70.78;100989.25;5050836;28;20515;-58
2023/05/14 00:27:42;;;;;;;21.13;11.18;;;;;;;11.07;70.58;100982.34;5051048;28;20045;-59
2023/05/14 00:30:11;;;;;;;22.95;11.10;;;;;;;11.04;71.33;100972.78;5054853;28;20098;-58
2023/05/14 00:32:39;;;;;;;22.48;10.52;;;;;;;11.00;70.36;100971.88;5046271;28;20041;-57
2023/05/14 00:35:08;;;;;;;22.77;10.48;;;;;;;10.98;70.84;100973.56;5058598;28;20048;-57
2023/05/14 00:37:36;;;;;;;21.63;11.75;;;;;;;10.92;70.51;100970.94;5042201;28;20103;-58
2023/05/14 00:40:06;;;;;;;20.55;11.05;;;;;;;10.91;70.88;100977.00;5047206;28;20120;-58
2023/05/14 00:42:34;;;;;;;23.58;10.63;;;;;;;10.91;71.46;100972.66;5052148;28;20048;-57
2023/05/14 00:45:03;;;;;;;21.27;11.23;;;;;;;10.90;70.55;100970.03;5049852;28;20049;-58
2023/05/14 00:47:33;;;;;;;24.55;11.27;;;;;;;10.91;70.78;100977.00;5055890;28;20055;-59
2023/05/14 00:50:03;;;;;;;19.83;10.00;;;;;;;10.91;70.73;100967.47;5046294;28;20708;-59
2023/05/14 00:52:31;;;;;;;21.42;10.82;;;;;;;10.92;70.88;100971.78;5043515;28;20128;-55
2023/05/14 00:55:02;;;;;;;18.77;9.70;;;;;;;10.91;70.95;100964.88;5047185;28;20044;-57
2023/05/14 00:57:31;;;;;;;21.55;11.00;;;;;;;10.88;71.41;100961.41;5048138;28;20119;-56
2023/05/14 01:00:00;;;;;;;20.10;10.77;;;;;;;10.85;70.48;100961.34;5052288;28;20075;-56
2023/05/14 01:02:26;;;;;;;21.00;11.13;;;;;;;10.85;70.76;100961.34;5045476;28;20045;-57
2023/05/14 01:04:54;;;;;;;21.10;10.30;;;;;;;10.84;70.65;100959.63;5042267;28;20037;-59
2023/05/14 01:10:09;;;;;;;25.40;12.55;;;;;;;11.31;69.96;100955.75;5026054;27;20414;-54
2023/05/14 01:17:59;;;;;;;15.80;8.38;;;;;;;11.00;70.66;100956.34;5034722;28;20412;-54
2023/05/14 01:20:26;;;;;;;19.05;9.27;;;;;;;10.98;71.31;100952.84;5021116;28;20045;-53
2023/05/14 01:22:52;;;;;;;21.73;10.48;;;;;;;10.97;70.80;100953.69;5040935;28;20130;-56
2023/05/14 01:25:19;;;;;;;20.08;9.40;;;;;;;10.92;70.43;100942.44;5041274;28;20049;-57
2023/05/14 01:30:30;;;;;;;21.13;11.35;;;;;;;10.88;70.52;100940.66;5006417;27;20899;-57
2023/05/14 01:33:01;;;;;;;23.48;11.18;;;;;;;10.89;70.93;100937.22;5002510;28;20525;-55
2023/05/14 01:35:29;;;;;;;21.25;11.20;;;;;;;10.88;71.52;100940.66;5011266;28;20127;-57
2023/05/14 01:37:59;;;;;;;20.33;11.93;;;;;;;10.88;71.36;100940.66;5020101;28;20045;-54
2023/05/14 01:40:26;;;;;;;20.92;11.50;;;;;;;10.84;70.82;100934.56;5019883;28;20045;-55
2023/05/14 01:42:53;;;;;;;21.38;10.73;;;;;;;10.84;70.68;100921.59;5018596;28;20458;-58
2023/05/14 01:45:21;;;;;;;23.95;10.90;;;;;;;10.82;70.59;100931.09;5017850;28;20041;-57
2023/05/14 01:47:48;;;;;;;22.38;12.10;;;;;;;10.79;71.19;100926.75;5018343;28;20520;-57
2023/05/14 01:50:15;;;;;;;21.77;11.50;;;;;;;10.78;71.14;100927.59;5015495;28;20164;-57
2023/05/14 01:52:42;;;;;;;20.40;11.73;;;;;;;10.79;70.74;100928.47;5017366;28;20073;-58
2023/05/14 01:55:09;;;;;;;21.45;11.77;;;;;;;10.79;70.57;100931.94;5020435;28;20081;-56
2023/05/14 01:57:35;;;;;;;23.67;12.65;;;;;;;10.79;70.51;100926.75;5017807;28;20077;-56
2023/05/14 02:00:03;;;;;;;24.02;12.20;;;;;;;10.82;71.24;100925.03;5015174;28;20045;-57
2023/05/14 02:02:29;;;;;;;22.25;11.68;;;;;;;10.82;71.44;100925.91;5014696;28;20050;-55
2023/05/14 02:04:56;;;;;;;25.92;14.30;;;;;;;10.83;70.40;100922.47;5014886;28;20050;-58
2023/05/14 02:07:23;;;;;;;27.60;13.13;;;;;;;10.84;70.67;100931.13;5018940;28;20513;-55
2023/05/14 02:09:49;;;;;;;26.27;11.90;;;;;;;10.82;71.52;100925.91;5018926;28;20088;-57
2023/05/14 02:12:16;;;;;;;22.02;11.38;;;;;;;10.82;71.33;100915.56;5017292;28;21894;-58
2023/05/14 02:14:42;;;;;;;26.25;13.88;;;;;;;10.83;70.89;100908.63;5012746;28;20079;-58
2023/05/14 02:17:09;;;;;;;25.67;13.25;;;;;;;10.83;70.43;100904.31;5020644;28;20537;-56
2023/05/14 02:19:36;;;;;;;23.42;12.20;;;;;;;10.82;71.02;100899.13;5014533;28;20151;-57
2023/05/14 02:22:02;;;;;;;25.75;12.15;;;;;;;10.80;71.08;100897.41;5016046;28;20080;-56
2023/05/14 02:24:29;;;;;;;24.25;13.40;;;;;;;10.78;70.93;100899.09;5011719;28;20041;-57
2023/05/14 02:26:55;;;;;;;25.13;11.45;;;;;;;10.75;70.84;100896.50;5019276;28;20056;-56
2023/05/14 02:29:22;;;;;;;29.13;13.90;;;;;;;10.74;71.48;100892.13;5020177;28;20077;-57
2023/05/14 02:31:48;;;;;;;25.42;12.13;;;;;;;10.73;72.02;100900.78;5015896;28;20053;-57
2023/05/14 02:34:15;;;;;;;26.70;13.50;;;;;;;10.71;71.24;100894.69;5016278;28;20058;-57
2023/05/14 02:36:42;;;;;;;26.20;12.65;;;;;;;10.71;71.94;100896.44;5019020;28;20042;-56
2023/05/14 02:39:09;;;;;;;25.70;12.90;;;;;;;10.67;71.85;100879.97;5018584;28;20125;-57
2023/05/14 02:41:35;;;;;;;31.38;15.27;;;;;;;10.68;71.91;100889.50;5006781;28;20046;-55
2023/05/14 02:44:02;;;;;;;26.48;13.10;;;;;;;10.67;71.36;100892.94;5007396;28;20050;-58
2023/05/14 02:46:30;;;;;;;25.20;12.40;;;;;;;10.67;71.59;100885.16;5004453;28;20089;-57
2023/05/14 02:48:57;;;;;;;28.48;13.57;;;;;;;10.65;71.35;100886.88;5021262;28;20417;-58
2023/05/14 02:51:25;;;;;;;26.50;13.18;;;;;;;10.65;71.94;100892.06;5002801;28;20115;-56
2023/05/14 02:53:51;;;;;;;26.45;13.13;;;;;;;10.63;71.40;100884.25;5000387;28;20100;-55
2023/05/14 02:56:18;;;;;;;26.13;13.48;;;;;;;10.61;71.08;100885.09;5003051;28;20066;-58
2023/05/14 02:58:45;;;;;;;29.20;13.65;;;;;;;10.61;72.08;100878.19;5003881;28;20054;-57
2023/05/14 03:01:11;;;;;;;29.75;13.85;;;;;;;10.60;71.61;100878.19;5006559;28;20092;-55
2023/05/14 03:03:38;;;;;;;26.95;13.35;;;;;;;10.61;71.39;100879.94;5006950;28;20050;-54
2023/05/14 03:06:06;;;;;;;27.23;12.80;;;;;;;10.60;71.43;100884.22;5006355;28;20073;-55
2023/05/14 03:08:32;;;;;;;27.25;12.40;;;;;;;10.59;71.50;100879.91;5004503;28;20077;-56
2023/05/14 03:10:59;;;;;;;26.05;13.50;;;;;;;10.59;71.07;100879.03;5003382;28;20077;-57
2023/05/14 03:13:25;;;;;;;28.25;12.27;;;;;;;10.59;72.11;100886.78;5003194;28;20054;-57
2023/05/14 03:15:55;;;;;;;27.92;12.45;;;;;;;10.57;71.24;100878.16;5006898;28;20115;-56
2023/05/14 03:18:22;;;;;;;25.85;12.07;;;;;;;10.54;72.41;100874.66;5002433;28;20041;-56
2023/05/14 03:20:49;;;;;;;28.25;12.73;;;;;;;10.52;71.33;100872.91;5005437;28;20054;-56
2023/05/14 03:23:15;;;;;;;28.58;10.95;;;;;;;10.48;72.25;100869.44;5007271;28;20578;-55
2023/05/14 03:25:42;;;;;;;31.17;13.43;;;;;;;10.47;71.43;100875.44;5005549;28;20104;-56
2023/05/14 03:28:08;;;;;;;32.03;13.38;;;;;;;10.43;71.41;100876.22;5005587;28;20100;-56
2023/05/14 03:30:35;;;;;;;31.88;13.10;;;;;;;10.38;72.00;100863.25;5001148;28;20088;-58
2023/05/14 03:33:02;;;;;;;47.38;13.52;;;;;;;10.37;72.57;100865.81;4999571;28;20050;-57
2023/05/14 03:35:29;;;;;;;57.33;13.48;;;;;;;10.35;71.99;100862.34;5003317;28;20064;-56
2023/05/14 03:37:58;;;;;;;35.80;14.43;;;;;;;10.35;72.47;100860.63;5004001;28;20104;-54
2023/05/14 03:40:25;;;;;;;34.42;14.27;;;;;;;10.36;72.77;100856.28;5011623;28;20584;-57
2023/05/14 03:42:51;;;;;;;23.65;11.98;;;;;;;10.34;72.72;100850.25;5007148;28;20053;-54
2023/05/14 03:45:18;;;;;;;27.42;10.30;;;;;;;10.35;72.69;100847.69;5000850;28;20577;-54
2023/05/14 03:47:44;;;;;;;51.72;11.38;;;;;;;10.36;71.69;100848.53;5003073;28;20901;-58
2023/05/14 03:50:11;;;;;;;45.33;12.88;;;;;;;10.36;71.70;100848.53;5001725;28;20045;-58
2023/05/14 03:52:38;;;;;;;54.95;12.93;;;;;;;10.36;72.65;100845.94;5005225;28;20053;-56
2023/05/14 03:55:05;;;;;;;35.22;11.95;;;;;;;10.35;72.42;100839.03;5006726;28;20497;-56
2023/05/14 03:57:31;;;;;;;39.28;13.02;;;;;;;10.35;72.39;100844.22;4998475;28;20057;-56
2023/05/14 03:59:58;;;;;;;51.17;13.63;;;;;;;10.33;71.71;100838.16;5003683;28;20072;-56
2023/05/14 04:02:24;;;;;;;40.28;12.00;;;;;;;10.30;72.18;100838.97;5005644;28;20074;-57
2023/05/14 04:04:51;;;;;;;54.25;12.77;;;;;;;10.28;72.74;100836.41;5006075;28;20050;-58
2023/05/14 04:07:18;;;;;;;42.03;12.43;;;;;;;10.26;71.84;100827.72;5000441;28;20050;-57
2023/05/14 04:09:44;;;;;;;38.28;12.50;;;;;;;10.25;72.70;100825.13;5002656;28;20088;-56
2023/05/14 04:12:11;;;;;;;39.33;12.80;;;;;;;10.22;72.83;100827.66;5004089;28;20054;-54
2023/05/14 04:14:38;;;;;;;36.15;12.90;;;;;;;10.23;72.17;100832.00;4999984;28;20391;-56
2023/05/14 04:17:04;;;;;;;48.83;13.25;;;;;;;10.22;72.07;100823.38;5002268;28;20053;-58
2023/05/14 04:19:31;;;;;;;34.22;12.15;;;;;;;10.22;72.06;100825.97;5002280;28;20038;-55
2023/05/14 04:21:58;;;;;;;37.53;13.80;;;;;;;10.23;72.21;100825.09;5000655;28;20103;-57
2023/05/14 04:24:24;;;;;;;39.97;13.57;;;;;;;10.24;71.83;100826.81;5000694;28;20074;-55
2023/05/14 04:26:51;;;;;;;30.23;12.57;;;;;;;10.24;72.60;100823.38;5005797;28;20049;-56
2023/05/14 04:29:17;;;;;;;44.75;14.15;;;;;;;10.23;73.06;100822.50;5003069;28;20100;-58
2023/05/14 04:31:45;;;;;;;50.95;13.80;;;;;;;10.21;72.17;100813.00;5003286;28;20046;-57
2023/05/14 04:34:11;;;;;;;56.20;13.98;;;;;;;10.19;72.26;100815.56;5001249;28;20049;-54
2023/05/14 04:36:39;;;;;;;59.05;13.10;;;;;;;10.18;72.41;100802.59;5002299;28;20053;-56
2023/05/14 04:39:06;;;;;;;59.90;14.02;;;;;;;10.15;72.47;100809.50;5000063;28;20046;-56
2023/05/14 04:41:32;;;;;;;48.45;13.52;;;;;;;10.11;72.88;100807.72;5002518;28;20049;-56
2023/05/14 04:44:00;;;;;;;40.47;15.57;;;;;;;10.12;72.52;100798.22;4998824;28;20053;-55
2023/05/14 04:46:27;;;;;;;47.30;13.13;;;;;;;10.13;73.18;100794.78;5005536;28;20358;-57
2023/05/14 04:48:55;;;;;;;31.30;13.55;;;;;;;10.14;73.11;100791.34;4999481;28;20072;-56
2023/05/14 04:51:22;;;;;;;51.58;13.18;;;;;;;10.17;72.95;100791.38;5003036;28;20049;-58
2023/05/14 04:53:49;;;;;;;38.75;13.40;;;;;;;10.18;73.06;100793.13;5004832;28;20081;-57
2023/05/14 04:56:15;;;;;;;46.22;12.75;;;;;;;10.18;72.52;100787.94;5001366;28;20506;-56
2023/05/14 04:58:42;;;;;;;38.30;13.18;;;;;;;10.14;72.68;100791.34;5004313;28;20135;-57
2023/05/14 05:01:08;;;;;;;53.35;12.82;;;;;;;10.15;73.17;100790.50;5002824;28;20049;-58
2023/05/14 05:03:35;;;;;;;40.25;11.45;;;;;;;10.13;72.96;100795.66;5001135;28;20065;-55
2023/05/14 05:06:02;;;;;;;36.67;11.15;;;;;;;10.14;72.77;100796.53;5002500;28;20081;-55
2023/05/14 05:08:28;;;;;;;25.42;11.63;;;;;;;10.16;72.57;100805.16;5002980;28;20124;-56
2023/05/14 05:10:55;;;;;;;34.25;14.30;;;;;;;10.20;72.72;100801.75;4997562;28;20073;-57
2023/05/14 05:13:22;;;;;;;46.38;14.32;;;;;;;10.21;73.14;100800.94;5003449;28;20057;-57
2023/05/14 05:15:48;;;;;;;37.40;14.05;;;;;;;10.22;72.63;100805.25;5000643;28;20050;-56
2023/05/14 05:18:15;;;;;;;40.45;13.15;;;;;;;10.22;72.82;100800.06;5002859;28;20050;-57
2023/05/14 05:20:41;;;;;;;38.10;12.88;;;;;;;10.22;72.51;100797.47;5002396;28;20088;-57
2023/05/14 05:23:08;;;;;;;29.67;11.80;;;;;;;10.24;73.48;100800.09;5004110;28;20042;-56
2023/05/14 05:25:35;;;;;;;27.90;10.75;;;;;;;10.24;73.07;100793.16;4998939;28;20529;-55
2023/05/14 05:28:01;;;;;;;28.58;10.77;;;;;;;10.26;73.40;100786.31;5000407;28;20597;-56
2023/05/14 05:30:29;;;;;;;31.08;11.88;;;;;;;10.29;72.96;100780.28;4999397;28;20133;-57
2023/05/14 05:32:56;;;;;;;40.75;11.85;;;;;;;10.29;73.25;100780.28;5001594;28;20050;-57
2023/05/14 05:35:23;;;;;;;31.05;11.80;;;;;;;10.27;73.12;100782.00;5002585;28;20120;-57
2023/05/14 05:37:50;;;;;;;30.63;10.30;;;;;;;10.25;72.94;100792.34;4999742;28;20651;-59
2023/05/14 05:40:16;;;;;;;34.63;11.10;;;;;;;10.25;72.74;100783.69;5003172;28;20152;-57
2023/05/14 05:42:43;;;;;;;29.67;10.18;;;;;;;10.25;73.59;100783.69;5002513;28;20502;-57
2023/05/14 05:45:10;;;;;;;38.67;11.10;;;;;;;10.27;72.76;100782.00;5001508;28;20612;-56
2023/05/14 05:47:36;;;;;;;26.48;11.20;;;;;;;10.28;73.02;100779.44;5002618;28;20081;-58
2023/05/14 05:50:03;;;;;;;33.05;11.82;;;;;;;10.34;73.79;100780.34;5002636;28;20046;-55
2023/05/14 05:52:30;;;;;;;23.83;11.60;;;;;;;10.38;73.10;100784.69;5004275;28;20049;-57
2023/05/14 05:54:56;;;;;;;30.85;11.02;;;;;;;10.42;73.79;100778.69;4999912;28;20445;-57
2023/05/14 05:57:23;;;;;;;28.92;11.15;;;;;;;10.44;73.90;100783.88;4999199;28;20054;-58
2023/05/14 05:59:52;;;;;;;30.55;10.60;;;;;;;10.46;73.38;100783.06;5000592;28;20041;-58
2023/05/14 06:02:18;;;;;;;37.50;11.88;;;;;;;10.46;73.16;100770.13;5000465;28;20060;-55
2023/05/14 06:04:45;;;;;;;24.23;10.55;;;;;;;10.45;72.98;100781.34;5001614;28;20057;-57
2023/05/14 06:07:12;;;;;;;29.70;11.80;;;;;;;10.44;72.83;100778.69;4993923;28;20061;-55
2023/05/14 06:09:38;;;;;;;29.75;11.30;;;;;;;10.43;74.03;100772.66;4998409;28;20141;-55
2023/05/14 06:12:05;;;;;;;27.00;10.55;;;;;;;10.45;72.86;100765.81;4998540;28;20054;-56
2023/05/14 06:14:32;;;;;;;44.95;12.10;;;;;;;10.44;72.90;100771.81;5003339;28;20081;-56
2023/05/14 06:16:59;;;;;;;27.98;10.90;;;;;;;10.46;74.02;100775.31;5005975;28;20088;-57
2023/05/14 06:19:25;;;;;;;26.63;11.88;;;;;;;10.51;73.40;100768.44;5005881;28;20077;-55
2023/05/14 06:21:52;;;;;;;30.63;11.15;;;;;;;10.57;73.95;100761.59;5005999;28;20129;-57
2023/05/14 06:24:19;;;;;;;33.53;10.70;;;;;;;10.63;74.23;100761.63;5005140;28;20112;-57
2023/05/14 06:26:47;;;;;;;30.98;11.88;;;;;;;10.66;73.70;100752.16;4997259;28;20133;-57
2023/05/14 06:29:14;;;;;;;31.95;11.35;;;;;;;10.70;73.99;100755.66;5003364;28;20108;-58
2023/05/14 06:31:41;;;;;;;27.42;12.30;;;;;;;10.72;73.24;100755.66;5003390;28;20149;-59
2023/05/14 06:34:08;;;;;;;29.50;12.13;;;;;;;10.79;74.22;100753.16;5002729;28;20053;-55
2023/05/14 06:36:34;;;;;;;32.13;11.18;;;;;;;10.86;74.16;100755.75;5004922;28;20070;-56
2023/05/14 06:39:01;;;;;;;33.03;12.75;;;;;;;10.91;73.86;100748.91;5002920;28;20592;-57
2023/05/14 06:41:28;;;;;;;32.95;12.68;;;;;;;10.98;74.26;100755.00;5004510;28;20077;-55
2023/05/14 06:43:54;;;;;;;32.10;13.95;;;;;;;11.05;73.92;100757.63;4999696;28;20069;-59
2023/05/14 06:46:21;;;;;;;30.48;11.23;;;;;;;11.12;73.39;100757.69;5000410;28;20117;-59
2023/05/14 06:48:48;;;;;;;37.03;14.73;;;;;;;11.19;74.07;100755.13;5001327;28;20509;-56
2023/05/14 06:51:14;;;;;;;30.42;12.77;;;;;;;11.26;72.96;100761.22;5004383;28;20057;-56
2023/05/14 06:53:41;;;;;;;28.20;10.70;;;;;;;11.32;73.47;100761.25;5005480;28;20500;-55
2023/05/14 06:56:08;;;;;;;28.25;13.25;;;;;;;11.37;73.96;100768.19;5005470;28;20046;-55
2023/05/14 06:58:34;;;;;;;29.90;12.68;;;;;;;11.42;72.42;100766.50;5002639;28;20120;-59
2023/05/14 07:01:01;;;;;;;28.17;10.57;;;;;;;11.46;73.38;100755.28;5003732;28;20751;-58
2023/05/14 07:03:28;;;;;;;20.63;9.55;;;;;;;11.53;72.54;100759.66;4999284;28;20090;-57
2023/05/14 07:05:54;;;;;;;21.05;11.05;;;;;;;11.57;72.65;100761.38;5007376;28;20049;-57
2023/05/14 07:08:21;;;;;;;22.48;10.90;;;;;;;11.62;72.80;100755.34;5003110;28;20077;-55
2023/05/14 07:10:47;;;;;;;40.80;16.42;;;;;;;11.69;73.53;100754.53;5005916;28;20711;-59
2023/05/14 07:13:14;;;;;;;21.67;11.05;;;;;;;11.75;73.05;100751.94;5001815;28;20058;-58
2023/05/14 07:15:41;;;;;;;20.65;9.27;;;;;;;11.80;72.54;100752.84;5003685;28;20046;-57
2023/05/14 07:18:07;;;;;;;17.75;9.57;;;;;;;11.81;72.20;100746.78;5003937;28;20497;-55
2023/05/14 07:20:34;;;;;;;24.30;12.38;;;;;;;11.86;71.76;100745.91;5001739;28;20133;-55
2023/05/14 07:23:00;;;;;;;28.45;11.35;;;;;;;11.89;71.94;100741.59;4998255;28;20045;-58
2023/05/14 07:25:27;;;;;;;28.58;11.90;;;;;;;11.98;72.13;100740.75;5003049;28;20263;-59
2023/05/14 07:27:54;;;;;;;26.20;11.80;;;;;;;12.03;71.57;100741.63;5003191;28;20049;-60
2023/05/14 07:30:21;;;;;;;25.50;12.05;;;;;;;12.10;72.72;100741.69;5003372;28;20048;-58
2023/05/14 07:32:48;;;;;;;24.65;10.75;;;;;;;12.14;72.73;100746.03;5005371;28;20076;-59
2023/05/14 07:35:15;;;;;;;27.40;11.75;;;;;;;12.16;71.28;100739.13;5004880;28;20054;-56
2023/05/14 07:37:41;;;;;;;24.55;11.57;;;;;;;12.20;71.77;100751.25;5000866;28;20128;-57
2023/05/14 07:40:08;;;;;;;23.90;9.40;;;;;;;12.24;72.19;100747.78;5007199;28;20096;-59
2023/05/14 07:42:35;;;;;;;20.55;9.95;;;;;;;12.27;71.32;100746.91;5001408;28;20046;-59
2023/05/14 07:45:04;;;;;;;19.98;10.70;;;;;;;12.30;71.56;100747.75;5003053;28;20064;-59
2023/05/14 07:47:31;;;;;;;23.33;11.27;;;;;;;12.37;72.36;100747.78;5005967;28;20129;-59
2023/05/14 07:49:57;;;;;;;21.45;11.07;;;;;;;12.43;71.17;100747.81;5004632;28;20049;-57
2023/05/14 07:52:24;;;;;;;19.42;10.38;;;;;;;12.49;72.02;100747.78;5000188;28;20041;-58
2023/05/14 07:54:51;;;;;;;20.83;10.52;;;;;;;12.57;72.05;100751.25;5001728;28;20049;-50
2023/05/14 07:57:19;;;;;;;32.38;12.82;;;;;;;12.64;71.36;100743.47;5005909;28;20229;-49
2023/05/14 07:59:46;;;;;;;26.83;12.18;;;;;;;12.72;71.58;100744.34;4999862;28;20050;-64
2023/05/14 08:02:14;;;;;;;17.83;7.75;;;;;;;12.76;71.53;100740.00;4993544;28;21614;-58
2023/05/14 08:04:41;;;;;;;17.60;11.40;;;;;;;12.79;71.25;100740.00;5003682;28;20560;-61
2023/05/14 08:07:08;;;;;;;23.63;11.77;;;;;;;12.84;70.89;100739.13;5000397;28;20077;-58
2023/05/14 08:09:35;;;;;;;39.72;15.18;;;;;;;12.92;70.24;100741.72;5004963;28;20054;-60
2023/05/14 08:12:01;;;;;;;20.23;9.73;;;;;;;12.93;70.64;100735.66;4997797;28;20077;-62
2023/05/14 08:14:28;;;;;;;17.48;8.75;;;;;;;12.93;70.46;100732.16;5005888;28;20450;-59
2023/05/14 08:16:55;;;;;;;21.55;11.05;;;;;;;12.95;71.60;100727.84;5001884;28;20062;-62
2023/05/14 08:19:23;;;;;;;23.60;10.10;;;;;;;13.03;70.90;100725.25;4999507;28;20465;-60
2023/05/14 08:21:50;;;;;;;25.23;11.95;;;;;;;13.18;71.61;100732.13;5003270;28;20046;-57
2023/05/14 08:24:17;;;;;;;25.10;11.75;;;;;;;13.29;70.34;100730.38;4999888;28;20068;-60
2023/05/14 08:26:44;;;;;;;19.45;9.80;;;;;;;13.36;70.17;100731.22;5000687;28;20078;-60
2023/05/14 08:29:11;;;;;;;20.88;10.52;;;;;;;13.47;70.34;100725.97;5000614;28;20104;-61
2023/05/14 08:31:41;;;;;;;25.85;11.52;;;;;;;13.59;70.46;100725.97;4999710;28;20104;-57
2023/05/14 08:34:07;;;;;;;25.42;11.93;;;;;;;13.74;70.93;100731.94;5004877;28;20069;-59
2023/05/14 08:36:34;;;;;;;29.75;12.57;;;;;;;13.84;70.12;100728.44;5002670;28;20057;-62
2023/05/14 08:39:01;;;;;;;38.05;15.52;;;;;;;13.91;70.12;100733.63;5001137;28;20077;-61
2023/05/14 08:41:27;;;;;;;26.75;12.88;;;;;;;13.99;70.37;100731.84;5001795;28;20130;-62
2023/05/14 08:46:31;;;;;;;24.13;10.50;;;;;;;14.18;69.74;100726.50;5047667;27;20389;-59
2023/05/14 08:49:07;;;;;;;21.55;8.68;;;;;;;14.31;69.99;100728.13;5013312;28;20461;-57
2023/05/14 08:51:35;;;;;;;21.85;9.63;;;;;;;14.43;69.27;100721.97;5003870;28;20042;-59
2023/05/14 08:54:02;;;;;;;23.85;10.27;;;;;;;14.58;69.15;100718.38;5011435;28;20062;-61
2023/05/14 08:56:32;;;;;;;22.02;10.13;;;;;;;14.72;69.14;100707.81;5004583;28;20557;-58
2023/05/14 08:58:59;;;;;;;21.63;10.20;;;;;;;14.84;68.64;100711.22;5010823;28;20119;-58
2023/05/14 09:01:25;;;;;;;21.02;9.48;;;;;;;14.93;68.77;100710.28;5007131;28;20097;-65
2023/05/14 09:03:53;;;;;;;19.73;8.68;;;;;;;14.98;68.26;100708.47;5008387;28;20054;-59
2023/05/14 09:06:21;;;;;;;19.65;9.40;;;;;;;15.01;67.91;100709.31;5007823;28;20062;-54
2023/05/14 09:08:48;;;;;;;24.73;10.68;;;;;;;15.08;67.76;100704.88;5012012;28;20042;-63
2023/05/14 09:11:15;;;;;;;23.77;10.05;;;;;;;15.18;68.28;100689.13;5008735;28;20046;-63
2023/05/14 09:13:41;;;;;;;23.52;10.52;;;;;;;15.28;68.12;100701.19;5006128;28;20418;-59
2023/05/14 09:16:08;;;;;;;22.02;9.48;;;;;;;15.36;68.05;100699.34;5004689;28;20430;-60
2023/05/14 09:18:35;;;;;;;21.88;10.20;;;;;;;15.50;67.63;100698.31;5003518;28;20054;-61
2023/05/14 09:21:03;;;;;;;24.58;10.60;;;;;;;15.67;67.52;100693.72;5003960;28;20053;-65
2023/05/14 09:23:33;;;;;;;23.67;10.25;;;;;;;15.97;68.31;100690.72;5003617;28;20112;-56
2023/05/14 09:26:03;;;;;;;23.40;10.88;;;;;;;16.43;66.94;100688.28;5010378;28;20050;-64
2023/05/14 09:28:30;;;;;;;21.75;10.52;;;;;;;16.85;66.69;100684.91;5002522;28;20071;-61
2023/05/14 09:30:56;;;;;;;25.90;10.75;;;;;;;17.06;65.55;100688.91;5003087;28;20509;-61
2023/05/14 09:33:27;;;;;;;21.23;9.88;;;;;;;17.19;65.21;100681.66;5012573;28;20521;-61
2023/05/14 09:35:58;;;;;;;22.05;10.40;;;;;;;17.35;64.92;100683.97;5012102;28;20088;-62
2023/05/14 09:38:29;;;;;;;23.70;11.05;;;;;;;17.64;65.55;100677.25;5009764;28;20509;-57
2023/05/14 09:40:57;;;;;;;22.08;11.20;;;;;;;17.92;64.61;100674.00;5005191;28;20070;-58
2023/05/14 09:43:24;;;;;;;27.00;12.25;;;;;;;18.13;64.18;100673.56;5010665;28;20109;-58
2023/05/14 09:45:51;;;;;;;23.33;10.90;;;;;;;18.31;62.75;100669.63;5009382;28;20069;-58
2023/05/14 09:48:18;;;;;;;24.17;11.40;;;;;;;18.40;63.08;100669.38;5009160;28;20057;-60
2023/05/14 09:50:45;;;;;;;31.00;12.57;;;;;;;18.48;62.84;100667.41;5003273;28;20458;-59
2023/05/14 09:53:12;;;;;;;28.08;12.50;;;;;;;18.60;62.80;100675.88;5014339;28;20070;-62
2023/05/14 09:55:40;;;;;;;34.97;15.15;;;;;;;18.84;63.21;100669.09;4999407;28;20127;-63
2023/05/14 09:58:07;;;;;;;23.75;10.57;;;;;;;19.07;62.86;100670.25;4989788;28;20576;-53
2023/05/14 10:00:34;;;;;;;21.33;10.60;;;;;;;19.33;62.51;100665.16;4995792;28;20116;-59
2023/05/14 10:03:05;;;;;;;21.95;11.05;;;;;;;19.65;61.79;100661.56;4996048;28;20078;-57
2023/05/14 10:05:38;;;;;;;25.25;11.68;;;;;;;19.87;61.53;100660.03;4988657;28;20166;-62
2023/05/14 10:08:12;;;;;;;21.98;10.50;;;;;;;20.16;61.40;100658.22;4995213;28;20070;-56
2023/05/14 10:10:39;;;;;;;20.73;10.18;;;;;;;20.36;60.74;100662.00;4995488;28;20054;-58
2023/05/14 10:13:12;;;;;;;21.45;11.20;;;;;;;20.59;60.32;100653.28;4994862;28;20077;-56
2023/05/14 10:15:46;;;;;;;22.35;10.70;;;;;;;20.88;59.39;100658.44;4986326;28;20085;-57
2023/05/14 10:18:18;;;;;;;22.02;11.45;;;;;;;21.03;59.18;100647.38;4983584;28;20459;-58
2023/05/14 10:20:51;;;;;;;20.30;10.70;;;;;;;21.17;57.84;100653.88;4995645;28;20089;-60
2023/05/14 10:23:18;;;;;;;20.17;10.43;;;;;;;21.24;58.28;100650.09;4990830;28;20104;-60
2023/05/14 10:25:45;;;;;;;22.92;11.30;;;;;;;21.36;58.37;100647.91;4988842;28;20089;-59
2023/05/14 10:28:12;;;;;;;21.35;10.43;;;;;;;21.53;58.53;100645.50;4990597;28;20458;-59
2023/05/14 10:30:44;;;;;;;22.65;11.25;;;;;;;21.69;58.55;100639.63;4994557;28;20053;-59
2023/05/14 10:33:14;;;;;;;22.67;12.02;;;;;;;21.92;58.48;100645.78;4991562;28;20061;-58
2023/05/14 10:36:00;;;;;;;;;;;;;;;22.14;57.54;100642.22;4995720;28;20035;-59
2023/05/14 10:38:31;;;;;;;20.98;11.02;;;;;;;22.46;57.67;100637.38;4996597;28;19922;-59
2023/05/14 10:41:00;;;;;;;19.92;10.25;;;;;;;22.58;57.02;100639.50;4991548;28;20046;-59
2023/05/14 10:43:29;;;;;;;17.40;10.35;;;;;;;22.71;56.88;100631.03;4991490;28;20105;-60
2023/05/14 10:45:57;;;;;;;21.20;11.90;;;;;;;22.88;56.27;100635.56;4989381;28;20105;-59
2023/05/14 10:48:24;;;;;;;21.38;10.77;;;;;;;23.03;55.67;100634.00;4992530;28;20495;-61
2023/05/14 10:50:52;;;;;;;22.08;11.20;;;;;;;23.14;55.50;100632.66;4995533;28;20043;-60
2023/05/14 10:53:29;;;;;;;20.92;11.30;;;;;;;23.28;55.48;100632.88;4997133;28;20046;-63
2023/05/14 10:55:55;;;;;;;18.13;10.02;;;;;;;23.45;54.87;100626.81;4993421;28;20632;-61
2023/05/14 10:58:22;;;;;;;16.58;8.50;;;;;;;23.56;54.96;100625.44;4998051;28;20094;-59
2023/05/14 11:00:53;;;;;;;17.85;9.93;;;;;;;23.51;54.27;100623.03;4999382;28;20062;-63
2023/05/14 11:03:20;;;;;;;17.23;10.07;;;;;;;23.43;53.97;100619.88;4992694;28;20073;-58
2023/05/14 11:05:47;;;;;;;18.42;9.75;;;;;;;23.46;54.31;100619.72;5002462;28;20093;-59
2023/05/14 11:08:14;;;;;;;17.80;9.35;;;;;;;23.57;54.17;100616.59;4993435;28;20046;-60
2023/05/14 11:10:42;;;;;;;16.30;9.15;;;;;;;23.69;53.59;100621.28;4987171;28;20064;-60
2023/05/14 11:13:09;;;;;;;17.77;9.82;;;;;;;23.79;53.33;100613.75;4995135;28;20133;-61
2023/05/14 11:15:37;;;;;;;18.02;9.30;;;;;;;23.86;52.97;100612.50;4985998;28;20662;-61
2023/05/14 11:18:04;;;;;;;14.57;9.27;;;;;;;23.99;53.09;100598.66;4990498;28;20086;-59
2023/05/14 11:20:31;;;;;;;15.85;9.32;;;;;;;24.10;52.37;100598.09;4997583;28;20057;-60
2023/05/14 11:22:59;;;;;;;16.10;9.52;;;;;;;24.17;52.17;100603.97;4993709;28;20056;-62